Time;durP1;ratioP1;P1;durP2;ratioP2;P2;SDS_P1;SDS_P2;PMS_P1;PMS_P2;Temp;Humidity;BMP_temperature;BMP_pressure;BME280_temperature;BME280_humidity;BME280_pressure;Samples;Min_cycle;Max_cycle;Signal;HPM_P1;HPM_P2
2022/09/19 17:57:05;;;;;;;;;;;;;;;;;;373578;287;483947;-56
2022/09/19 17:59:06;;;;;;;;;;;;;;;;;;368641;291;489517;-57
2022/09/19 18:03:27;;;;;;;;;;;;;;;;;;368624;291;491435;-54
2022/09/19 18:05:30;;;;;;;;;;;;;;;;;;368396;291;491356;-53
2022/09/19 18:07:32;;;;;;;;;;;;;;;;;;368136;291;493500;-57
2022/09/19 18:09:34;;;;;;;;;;;;;;;;;;366104;291;492562;-55
2022/09/19 18:11:36;;;;;;;;;;;;;;;;;;366432;291;493119;-54
2022/09/19 18:13:38;;;;;;;;;;;;;;;;;;368019;291;493029;-54
2022/09/19 18:15:46;;;;;;;;;;;;;;;;;;368045;291;490795;-55
2022/09/19 18:17:46;;;;;;;;;;;;;;;;;;370419;290;491872;-53
2022/09/19 18:19:46;;;;;;;;;;;;;;;;;;367846;291;491889;-57
2022/09/19 18:21:48;;;;;;;;;;;;;;;;;;368380;291;490917;-55
2022/09/19 18:23:49;;;;;;;;;;;;;;;;;;368309;291;491339;-54
2022/09/19 18:25:51;;;;;;;;;;;;;;;;;;368257;291;491757;-56
2022/09/19 18:27:52;;;;;;;;;;;;;;;;;;366700;292;490362;-55
2022/09/19 18:29:54;;;;;;;;;;;;;;;;;;367286;292;490347;-56
2022/09/19 18:31:55;;;;;;;;;;;;;;;;;;367064;292;490495;-56
2022/09/19 18:33:57;;;;;;;;;;;;;;;;;;367620;292;490300;-56
2022/09/19 18:35:58;;;;;;;;;;;;;;;;;;369559;290;490896;-56
2022/09/19 18:38:01;;;;;;;;;;;;;;;;;;368891;291;489276;-55
2022/09/19 18:40:02;;;;;;;;;;;;;;;;;;368174;291;490666;-58
2022/09/19 18:42:04;;;;;;;;;;;;;;;;;;366243;291;489555;-55
2022/09/19 18:44:05;;;;;;;;;;;;;;;;;;366692;291;496359;-56
2022/09/19 18:46:07;;;;;;;;;;;;;;;;;;367026;291;491585;-57
2022/09/19 18:48:08;;;;;;;;;;;;;;;;;;367802;291;491103;-55
2022/09/19 18:50:10;;;;;;;;;;;;;;;;;;366768;291;490602;-55
2022/09/19 18:52:12;;;;;;;;;;;;;;;;;;366450;291;490994;-57
2022/09/19 18:54:13;;;;;;;;;;;;;;;;;;367975;291;491266;-56
2022/09/19 18:56:15;;;;;;;;;;;;;;;;;;367145;291;490577;-56
2022/09/19 18:58:16;;;;;;;;;;;;;;;;;;367354;291;489393;-55
2022/09/19 19:00:18;;;;;;;;;;;;;;;;;;365374;294;491645;-57
2022/09/19 19:02:20;;;;;;;;;;;;;;;;;;366135;293;489790;-55
2022/09/19 19:04:21;;;;;;;;;;;;;;;;;;367782;291;491061;-57
2022/09/19 19:06:23;;;;;;;;;;;;;;;;;;366794;291;490892;-54
2022/09/19 19:08:26;;;;;;;;;;;;;;;;;;367049;291;490488;-56
2022/09/19 19:10:27;;;;;;;;;;;;;;;;;;367882;291;493575;-55
2022/09/19 19:12:29;;;;;;;;;;;;;;;;;;367527;291;491144;-58
2022/09/19 19:14:31;;;;;;;;;;;;;;;;;;367338;291;489690;-58
2022/09/19 19:16:33;;;;;;;;;;;;;;;;;;366804;291;492011;-55
2022/09/19 19:18:34;;;;;;;;;;;;;;;;;;364989;293;490283;-56
2022/09/19 19:20:36;;;;;;;;;;;;;;;;;;367343;291;493174;-56
2022/09/19 19:22:37;;;;;;;;;;;;;;;;;;364835;293;490364;-57
2022/09/19 19:24:39;;;;;;;;;;;;;;;;;;365543;293;491761;-55
2022/09/19 19:26:40;;;;;;;;;;;;;;;;;;365194;293;490208;-56
2022/09/19 19:28:42;;;;;;;;;;;;;;;;;;365533;293;490956;-54
2022/09/19 19:30:43;;;;;;;;;;;;;;;;;;368212;291;488554;-54
2022/09/19 19:32:45;;;;;;;;;;;;;;;;;;365822;292;488566;-55
2022/09/19 19:34:47;;;;;;;;;;;;;;;;;;365714;293;491086;-54
2022/09/19 19:36:49;;;;;;;;;;;;;;;;;;365979;293;491018;-51
2022/09/19 19:38:50;;;;;;;;;;;;;;;;;;367785;291;492865;-56
2022/09/19 19:40:52;;;;;;;;;;;;;;;;;;365366;269;490079;-54
2022/09/19 19:42:53;;;;;;;;;;;;;;;;;;364855;294;494587;-54
2022/09/19 19:44:55;;;;;;;;;;;;;;;;;;365143;294;490503;-53
2022/09/19 19:46:56;;;;;;;;;;;;;;;;;;364632;267;489108;-52
2022/09/19 19:51:14;;;;;;;;;;;;;;;;;;375117;287;483274;-63
2022/09/19 19:53:15;;;;;;;;;;;;;;;;;;369344;291;490817;-63
2022/09/19 19:55:17;;;;;;;;;;;;;;;;;;369861;291;491018;-62
2022/09/19 19:57:18;;;;;;;;;;;;;;;;;;368146;292;491728;-63
2022/09/19 19:59:23;;;;;;;;;;;;;;;;;;368029;292;491473;-62
2022/09/19 20:05:02;;;;;;;;;;;;;;;;;;371097;263;484525;-63
2022/09/19 20:07:04;;;;;;;;;;;;;;;;;;366495;266;491744;-65
2022/09/19 20:09:05;;;;;;;;;;;;;;;;;;366821;264;491482;-63
2022/09/19 20:11:11;;;;;;;;;;;;;;;;;;365405;265;492337;-65
2022/09/19 20:13:10;;;;;;;;;;;;;;;;;;364823;265;493255;-63
2022/09/19 20:15:12;;;;;;;;;;;;;;;;;;365502;265;491977;-64
2022/09/19 20:17:13;;;;;;;;;;;;;;;;;;364809;265;490708;-66
2022/09/19 20:19:18;;;;;;;;;;;;;;;;;;364969;265;491302;-64
2022/09/19 20:21:20;;;;;;;;;;;;;;;;;;365027;265;491111;-65
2022/09/19 20:23:22;;;;;;;;;;;;;;;;;;364811;265;491982;-63
2022/09/19 20:25:25;;;;;;;;;;;;;;;;;;365756;265;490300;-66
2022/09/19 20:27:26;;;;;;;;;;;;;;;;;;364851;265;490832;-64
2022/09/19 20:29:28;;;;;;;;;;;;;;;;;;365068;266;491137;-63
2022/09/19 20:31:30;;;;;;;;;;;;;;;;;;365577;265;489753;-63
2022/09/19 20:33:31;;;;;;;;;;;;;;;;;;365166;265;490212;-66
2022/09/19 20:41:45;;;;;;;;;;;;;;;;;;359036;290;484917;-67
2022/09/19 20:43:46;;;;;;;;;;;;;;;;;;355827;289;489050;-65
2022/09/19 20:51:16;;;;;;;;;;;;;;;;;;357594;290;484764;-64
2022/09/19 20:55:58;;;;;;;;;;;;;;;;;;361015;285;484572;-64
2022/09/19 21:01:38;;;;;;;;;;;;;;;;;;359473;287;483838;-64
2022/09/19 21:05:19;;;;;;;;;;;;;;;;;;364105;295;484843;-65
2022/09/19 21:07:21;;;;;;;;;;;;;;;;;;359443;299;491228;-65
2022/09/19 21:09:23;;;;;;;;;;;;;;;;;;355987;291;493265;-63
2022/09/19 21:11:25;;;;;;;;;;;;;;;;;;355523;291;489904;-64
2022/09/19 21:16:27;;;;;;;;;;;;;;;;;;359745;286;484694;-65
2022/09/19 21:18:29;;;;;;;;;;;;;;;;;;356476;301;488607;-65
2022/09/19 21:33:15;;;;;;;;;;;;;;;;;;359910;286;485422;-65
2022/09/19 21:36:17;;;;;;;;;;;;;;;;;;358871;290;484610;-66
2022/09/19 21:39:14;;;;;;;;;;;;;;;;;;359639;289;484753;-66
2022/09/19 21:41:16;;;;;;;;;;;;;;;;;;354252;302;489280;-66
2022/09/19 21:45:24;;;;;;;;;;;;;;;;;;359439;287;484811;-65
2022/09/19 21:47:25;;;;;;;;;;;;;;;;;;355129;302;489832;-65
2022/09/19 21:53:05;;;;;;;;;;;;;;;;;;360266;287;484087;-64
2022/09/19 21:55:07;;;;;;;;;;;;;;;;;;356386;301;490962;-65
2022/09/19 21:57:44;;;;;;;;;;;;;;;;;;379378;277;484561;-65
2022/09/19 21:59:45;;;;;;;;;;;;;;;;;;367860;278;489579;-67
2022/09/19 22:01:47;;;;;;;;;;;;;;;;;;371078;288;493806;-66
2022/09/19 22:03:48;;;;;;;;;;;;;;;;;;371165;289;491700;-67
2022/09/19 22:05:50;;;;;;;;;;;;;;;;;;372186;288;492796;-68
2022/09/19 22:07:51;;;;;;;;;;;;;;;;;;372441;288;489784;-68
2022/09/19 22:09:53;;;;;;;;;;;;;;;;;;371870;288;493197;-66
2022/09/19 22:11:54;;;;;;;;;;;;;;;;;;373203;288;489737;-66
2022/09/19 22:13:58;;;;;;;;;;;;;;;;;;372230;288;493347;-67
2022/09/19 22:15:59;;;;;;;;;;;;;;;;;;371822;288;492321;-68
2022/09/19 22:18:00;;;;;;;;;;;;;;;;;;371463;288;492677;-64
2022/09/19 22:20:02;;;;;;;;;;;;;;;;;;372753;288;490039;-64
2022/09/19 22:22:04;;;;;;;;;;;;;;;;;;372226;288;489904;-66
2022/09/19 22:24:05;;;;;;;;;;;;;;;;;;372240;288;490862;-65
2022/09/19 23:06:10;;;;;;;;;;;;;;;;;;379164;283;484995;-62
2022/09/19 23:08:11;;;;;;;;;;;;;;;;;;371096;290;489683;-62
2022/09/19 23:10:13;;;;;;;;;;;;;;;;;;371936;288;492520;-61
2022/09/19 23:12:14;;;;;;;;;;;;;;;;;;372302;288;490903;-62
2022/09/19 23:14:17;;;;;;;;;;;;;;;;;;372123;288;492547;-61
2022/09/19 23:16:19;;;;;;;;;;;;;;;;;;372679;288;491363;-62
2022/09/19 23:18:20;;;;;;;;;;;;;;;;;;372602;288;492741;-62
2022/09/19 23:20:22;;;;;;;;;;;;;;;;;;372471;288;490281;-62
2022/09/19 23:22:23;;;;;;;;;;;;;;;;;;372171;288;492913;-62
2022/09/19 23:24:26;;;;;;;;;;;;;;;;;;372343;288;490650;-62
2022/09/19 23:26:28;;;;;;;;;;;;;;;;;;372133;288;493143;-62
2022/09/19 23:28:29;;;;;;;;;;;;;;;;;;372463;288;490039;-61
2022/09/19 23:30:31;;;;;;;;;;;;;;;;;;372071;288;495066;-62
2022/09/19 23:32:32;;;;;;;;;;;;;;;;;;370980;290;491227;-64
2022/09/19 23:34:34;;;;;;;;;;;;;;;;;;372713;288;492064;-61
2022/09/19 23:36:35;;;;;;;;;;;;;;;;;;372288;288;490566;-57
2022/09/19 23:38:37;;;;;;;;;;;;;;;;;;372963;288;492571;-56
2022/09/19 23:42:26;;;;;;;;;;;;;;;;;;379926;283;484448;-57
2022/09/19 23:44:28;;;;;;;;;;;;;;;;;;373108;287;491022;-59
2022/09/19 23:46:30;;;;;;;;;;;;;;;;;;371282;289;492895;-60
2022/09/19 23:48:31;;;;;;;;;;;;;;;;;;371364;289;490704;-60
2022/09/19 23:50:33;;;;;;;;;;;;;;;;;;372748;288;493661;-60
2022/09/19 23:52:35;;;;;;;;;;;;;;;;;;372483;288;489544;-59
2022/09/19 23:54:37;;;;;;;;;;;;;;;;;;372579;288;492766;-60
2022/09/19 23:56:39;;;;;;;;;;;;;;;;;;372760;287;490217;-60
2022/09/19 23:58:40;;;;;;;;;;;;;;;;;;372648;288;492750;-60
